sensor_id;sensor_type;location;lat;lon;timestamp;P1;durP1;ratioP1;P2;durP2;ratioP2
49460;SDS011;35355;49.198;-0.368;2022-11-13T00:00:48;11.70;;;6.18;;
49460;SDS011;35355;49.198;-0.368;2022-11-13T00:03:13;13.45;;;7.05;;
49460;SDS011;35355;49.198;-0.368;2022-11-13T00:05:39;11.82;;;6.43;;
49460;SDS011;35355;49.198;-0.368;2022-11-13T00:08:05;12.93;;;7.40;;
49460;SDS011;35355;49.198;-0.368;2022-11-13T00:10:30;12.43;;;7.35;;
49460;SDS011;35355;49.198;-0.368;2022-11-13T00:12:56;15.10;;;6.80;;
49460;SDS011;35355;49.198;-0.368;2022-11-13T00:15:21;13.57;;;7.13;;
49460;SDS011;35355;49.198;-0.368;2022-11-13T00:17:46;13.95;;;7.05;;
49460;SDS011;35355;49.198;-0.368;2022-11-13T00:20:12;18.00;;;7.03;;
49460;SDS011;35355;49.198;-0.368;2022-11-13T00:22:37;10.32;;;6.57;;
49460;SDS011;35355;49.198;-0.368;2022-11-13T00:25:03;12.55;;;7.72;;
49460;SDS011;35355;49.198;-0.368;2022-11-13T00:27:29;12.70;;;5.90;;
49460;SDS011;35355;49.198;-0.368;2022-11-13T00:29:55;18.90;;;8.55;;
49460;SDS011;35355;49.198;-0.368;2022-11-13T00:32:21;12.07;;;6.95;;
49460;SDS011;35355;49.198;-0.368;2022-11-13T00:34:46;12.48;;;7.47;;
49460;SDS011;35355;49.198;-0.368;2022-11-13T00:37:11;14.52;;;6.82;;
49460;SDS011;35355;49.198;-0.368;2022-11-13T00:39:37;30.15;;;8.93;;
49460;SDS011;35355;49.198;-0.368;2022-11-13T00:42:02;16.30;;;7.32;;
49460;SDS011;35355;49.198;-0.368;2022-11-13T00:44:27;14.88;;;7.07;;
49460;SDS011;35355;49.198;-0.368;2022-11-13T00:46:53;16.17;;;6.50;;
49460;SDS011;35355;49.198;-0.368;2022-11-13T00:49:18;11.88;;;7.38;;
49460;SDS011;35355;49.198;-0.368;2022-11-13T00:51:43;14.35;;;7.70;;
49460;SDS011;35355;49.198;-0.368;2022-11-13T00:54:09;13.48;;;7.50;;
49460;SDS011;35355;49.198;-0.368;2022-11-13T00:56:34;13.80;;;7.43;;
49460;SDS011;35355;49.198;-0.368;2022-11-13T00:59:00;13.00;;;7.00;;
49460;SDS011;35355;49.198;-0.368;2022-11-13T01:01:25;12.95;;;7.43;;
49460;SDS011;35355;49.198;-0.368;2022-11-13T01:03:50;15.18;;;7.50;;
49460;SDS011;35355;49.198;-0.368;2022-11-13T01:06:20;13.52;;;7.00;;
49460;SDS011;35355;49.198;-0.368;2022-11-13T01:08:48;11.20;;;6.63;;
49460;SDS011;35355;49.198;-0.368;2022-11-13T01:11:15;15.27;;;7.32;;
49460;SDS011;35355;49.198;-0.368;2022-11-13T01:13:43;11.18;;;6.97;;
49460;SDS011;35355;49.198;-0.368;2022-11-13T01:16:11;10.57;;;6.95;;
49460;SDS011;35355;49.198;-0.368;2022-11-13T01:18:37;17.02;;;8.07;;
49460;SDS011;35355;49.198;-0.368;2022-11-13T01:21:06;13.05;;;7.80;;
49460;SDS011;35355;49.198;-0.368;2022-11-13T01:23:36;14.82;;;7.05;;
49460;SDS011;35355;49.198;-0.368;2022-11-13T01:26:10;15.48;;;7.80;;
49460;SDS011;35355;49.198;-0.368;2022-11-13T01:28:37;17.60;;;7.85;;
49460;SDS011;35355;49.198;-0.368;2022-11-13T01:31:07;11.98;;;6.95;;
49460;SDS011;35355;49.198;-0.368;2022-11-13T01:33:34;15.45;;;6.93;;
49460;SDS011;35355;49.198;-0.368;2022-11-13T01:36:01;14.70;;;7.88;;
49460;SDS011;35355;49.198;-0.368;2022-11-13T01:38:28;9.40;;;6.43;;
49460;SDS011;35355;49.198;-0.368;2022-11-13T01:40:53;15.43;;;8.30;;
49460;SDS011;35355;49.198;-0.368;2022-11-13T01:48:27;13.77;;;7.07;;
49460;SDS011;35355;49.198;-0.368;2022-11-13T01:50:58;13.77;;;6.80;;
49460;SDS011;35355;49.198;-0.368;2022-11-13T01:53:24;11.32;;;7.07;;
49460;SDS011;35355;49.198;-0.368;2022-11-13T01:55:50;13.20;;;7.65;;
49460;SDS011;35355;49.198;-0.368;2022-11-13T01:58:16;15.55;;;7.15;;
49460;SDS011;35355;49.198;-0.368;2022-11-13T02:00:42;12.18;;;7.68;;
49460;SDS011;35355;49.198;-0.368;2022-11-13T02:03:07;15.90;;;7.82;;
49460;SDS011;35355;49.198;-0.368;2022-11-13T02:05:33;13.43;;;6.70;;
49460;SDS011;35355;49.198;-0.368;2022-11-13T02:07:58;12.80;;;6.82;;
49460;SDS011;35355;49.198;-0.368;2022-11-13T02:10:24;11.20;;;6.38;;
49460;SDS011;35355;49.198;-0.368;2022-11-13T02:12:50;21.48;;;7.45;;
49460;SDS011;35355;49.198;-0.368;2022-11-13T02:15:17;13.98;;;6.50;;
49460;SDS011;35355;49.198;-0.368;2022-11-13T02:17:46;12.65;;;7.43;;
49460;SDS011;35355;49.198;-0.368;2022-11-13T02:20:16;17.88;;;6.63;;
49460;SDS011;35355;49.198;-0.368;2022-11-13T02:25:54;12.25;;;6.85;;
49460;SDS011;35355;49.198;-0.368;2022-11-13T02:28:19;13.23;;;6.63;;
49460;SDS011;35355;49.198;-0.368;2022-11-13T02:30:45;16.10;;;6.78;;
49460;SDS011;35355;49.198;-0.368;2022-11-13T02:33:30;11.75;;;7.22;;
49460;SDS011;35355;49.198;-0.368;2022-11-13T02:35:56;13.85;;;7.20;;
49460;SDS011;35355;49.198;-0.368;2022-11-13T02:38:22;9.55;;;6.40;;
49460;SDS011;35355;49.198;-0.368;2022-11-13T02:40:48;14.95;;;7.25;;
49460;SDS011;35355;49.198;-0.368;2022-11-13T02:43:13;14.90;;;6.30;;
49460;SDS011;35355;49.198;-0.368;2022-11-13T02:45:38;11.10;;;6.10;;
49460;SDS011;35355;49.198;-0.368;2022-11-13T02:48:04;13.95;;;6.97;;
49460;SDS011;35355;49.198;-0.368;2022-11-13T02:50:31;11.52;;;7.50;;
49460;SDS011;35355;49.198;-0.368;2022-11-13T02:52:57;16.20;;;6.43;;
49460;SDS011;35355;49.198;-0.368;2022-11-13T02:55:23;11.45;;;6.45;;
49460;SDS011;35355;49.198;-0.368;2022-11-13T02:57:48;16.27;;;7.30;;
49460;SDS011;35355;49.198;-0.368;2022-11-13T03:00:14;15.10;;;7.35;;
49460;SDS011;35355;49.198;-0.368;2022-11-13T03:02:40;16.25;;;7.50;;
49460;SDS011;35355;49.198;-0.368;2022-11-13T03:05:05;11.82;;;7.00;;
49460;SDS011;35355;49.198;-0.368;2022-11-13T03:07:31;12.55;;;7.07;;
49460;SDS011;35355;49.198;-0.368;2022-11-13T03:09:57;12.25;;;7.57;;
49460;SDS011;35355;49.198;-0.368;2022-11-13T03:12:22;12.70;;;7.13;;
49460;SDS011;35355;49.198;-0.368;2022-11-13T03:14:47;12.88;;;6.22;;
49460;SDS011;35355;49.198;-0.368;2022-11-13T03:17:13;10.70;;;6.97;;
49460;SDS011;35355;49.198;-0.368;2022-11-13T03:19:38;11.60;;;6.53;;
49460;SDS011;35355;49.198;-0.368;2022-11-13T03:22:04;16.17;;;7.68;;
49460;SDS011;35355;49.198;-0.368;2022-11-13T03:24:29;12.80;;;7.30;;
49460;SDS011;35355;49.198;-0.368;2022-11-13T03:26:55;12.57;;;7.38;;
49460;SDS011;35355;49.198;-0.368;2022-11-13T03:29:20;15.45;;;8.70;;
49460;SDS011;35355;49.198;-0.368;2022-11-13T03:31:45;14.60;;;6.68;;
49460;SDS011;35355;49.198;-0.368;2022-11-13T03:34:11;16.27;;;7.55;;
49460;SDS011;35355;49.198;-0.368;2022-11-13T03:36:36;12.38;;;7.85;;
49460;SDS011;35355;49.198;-0.368;2022-11-13T03:39:01;11.30;;;7.38;;
49460;SDS011;35355;49.198;-0.368;2022-11-13T03:41:27;12.48;;;6.75;;
49460;SDS011;35355;49.198;-0.368;2022-11-13T03:43:52;15.50;;;7.38;;
49460;SDS011;35355;49.198;-0.368;2022-11-13T03:46:17;11.88;;;8.00;;
49460;SDS011;35355;49.198;-0.368;2022-11-13T03:48:43;16.15;;;7.50;;
49460;SDS011;35355;49.198;-0.368;2022-11-13T03:51:08;16.33;;;7.35;;
49460;SDS011;35355;49.198;-0.368;2022-11-13T03:53:33;12.43;;;7.47;;
49460;SDS011;35355;49.198;-0.368;2022-11-13T03:55:59;13.48;;;7.38;;
49460;SDS011;35355;49.198;-0.368;2022-11-13T03:58:24;13.75;;;7.63;;
49460;SDS011;35355;49.198;-0.368;2022-11-13T04:00:50;13.55;;;7.47;;
49460;SDS011;35355;49.198;-0.368;2022-11-13T04:03:18;14.25;;;7.93;;
49460;SDS011;35355;49.198;-0.368;2022-11-13T04:05:45;12.93;;;7.65;;
49460;SDS011;35355;49.198;-0.368;2022-11-13T04:08:12;14.43;;;7.35;;
49460;SDS011;35355;49.198;-0.368;2022-11-13T04:10:37;15.80;;;7.68;;
49460;SDS011;35355;49.198;-0.368;2022-11-13T04:13:03;17.50;;;7.35;;
49460;SDS011;35355;49.198;-0.368;2022-11-13T04:15:28;13.82;;;7.40;;
49460;SDS011;35355;49.198;-0.368;2022-11-13T04:17:53;14.40;;;7.78;;
49460;SDS011;35355;49.198;-0.368;2022-11-13T04:20:19;13.82;;;7.85;;
49460;SDS011;35355;49.198;-0.368;2022-11-13T04:22:44;17.90;;;7.72;;
49460;SDS011;35355;49.198;-0.368;2022-11-13T04:25:10;17.00;;;7.78;;
49460;SDS011;35355;49.198;-0.368;2022-11-13T04:27:35;11.63;;;7.18;;
49460;SDS011;35355;49.198;-0.368;2022-11-13T04:30:01;13.32;;;7.28;;
49460;SDS011;35355;49.198;-0.368;2022-11-13T04:32:27;13.25;;;8.60;;
49460;SDS011;35355;49.198;-0.368;2022-11-13T04:34:52;15.65;;;7.85;;
49460;SDS011;35355;49.198;-0.368;2022-11-13T04:37:17;15.35;;;7.72;;
49460;SDS011;35355;49.198;-0.368;2022-11-13T04:39:43;11.57;;;6.97;;
49460;SDS011;35355;49.198;-0.368;2022-11-13T04:42:09;13.35;;;7.22;;
49460;SDS011;35355;49.198;-0.368;2022-11-13T04:44:54;15.25;;;7.88;;
49460;SDS011;35355;49.198;-0.368;2022-11-13T04:47:19;15.73;;;8.05;;
49460;SDS011;35355;49.198;-0.368;2022-11-13T04:49:45;18.77;;;8.10;;
49460;SDS011;35355;49.198;-0.368;2022-11-13T04:52:10;11.63;;;7.40;;
49460;SDS011;35355;49.198;-0.368;2022-11-13T04:54:36;14.60;;;7.70;;
49460;SDS011;35355;49.198;-0.368;2022-11-13T04:57:02;13.80;;;8.50;;
49460;SDS011;35355;49.198;-0.368;2022-11-13T04:59:27;11.73;;;7.03;;
49460;SDS011;35355;49.198;-0.368;2022-11-13T05:01:53;13.45;;;7.57;;
49460;SDS011;35355;49.198;-0.368;2022-11-13T05:04:19;15.27;;;8.18;;
49460;SDS011;35355;49.198;-0.368;2022-11-13T05:06:45;18.65;;;8.02;;
49460;SDS011;35355;49.198;-0.368;2022-11-13T05:09:11;13.98;;;7.82;;
49460;SDS011;35355;49.198;-0.368;2022-11-13T05:11:36;14.35;;;8.00;;
49460;SDS011;35355;49.198;-0.368;2022-11-13T05:14:03;16.00;;;7.82;;
49460;SDS011;35355;49.198;-0.368;2022-11-13T05:16:28;14.68;;;7.80;;
49460;SDS011;35355;49.198;-0.368;2022-11-13T05:18:54;15.50;;;8.35;;
49460;SDS011;35355;49.198;-0.368;2022-11-13T05:42:16;19.90;;;9.30;;
49460;SDS011;35355;49.198;-0.368;2022-11-13T05:44:42;14.45;;;8.63;;
49460;SDS011;35355;49.198;-0.368;2022-11-13T05:47:07;18.40;;;8.77;;
49460;SDS011;35355;49.198;-0.368;2022-11-13T05:49:32;15.85;;;8.45;;
49460;SDS011;35355;49.198;-0.368;2022-11-13T05:51:58;15.13;;;9.00;;
49460;SDS011;35355;49.198;-0.368;2022-11-13T05:54:23;18.52;;;8.77;;
49460;SDS011;35355;49.198;-0.368;2022-11-13T05:56:48;18.75;;;9.25;;
49460;SDS011;35355;49.198;-0.368;2022-11-13T05:59:14;16.02;;;8.73;;
49460;SDS011;35355;49.198;-0.368;2022-11-13T06:01:39;18.25;;;9.57;;
49460;SDS011;35355;49.198;-0.368;2022-11-13T06:04:05;18.73;;;9.13;;
49460;SDS011;35355;49.198;-0.368;2022-11-13T06:06:31;15.98;;;9.15;;
49460;SDS011;35355;49.198;-0.368;2022-11-13T06:08:58;14.07;;;7.90;;
49460;SDS011;35355;49.198;-0.368;2022-11-13T06:11:26;16.27;;;8.20;;
49460;SDS011;35355;49.198;-0.368;2022-11-13T06:13:53;12.02;;;8.02;;
49460;SDS011;35355;49.198;-0.368;2022-11-13T06:16:38;14.02;;;7.55;;
49460;SDS011;35355;49.198;-0.368;2022-11-13T06:19:05;15.88;;;7.50;;
49460;SDS011;35355;49.198;-0.368;2022-11-13T06:21:33;12.88;;;6.78;;
49460;SDS011;35355;49.198;-0.368;2022-11-13T06:23:59;11.55;;;6.47;;
49460;SDS011;35355;49.198;-0.368;2022-11-13T06:26:27;17.45;;;8.57;;
49460;SDS011;35355;49.198;-0.368;2022-11-13T06:28:54;14.55;;;7.50;;
49460;SDS011;35355;49.198;-0.368;2022-11-13T06:31:24;11.98;;;7.03;;
49460;SDS011;35355;49.198;-0.368;2022-11-13T06:33:52;13.25;;;7.53;;
49460;SDS011;35355;49.198;-0.368;2022-11-13T06:36:18;12.13;;;6.80;;
49460;SDS011;35355;49.198;-0.368;2022-11-13T06:38:45;14.48;;;7.47;;
49460;SDS011;35355;49.198;-0.368;2022-11-13T06:41:12;11.60;;;6.68;;
49460;SDS011;35355;49.198;-0.368;2022-11-13T06:43:39;15.70;;;8.07;;
49460;SDS011;35355;49.198;-0.368;2022-11-13T06:46:05;12.25;;;7.10;;
49460;SDS011;35355;49.198;-0.368;2022-11-13T06:48:38;17.45;;;7.78;;
49460;SDS011;35355;49.198;-0.368;2022-11-13T06:51:04;11.77;;;6.97;;
49460;SDS011;35355;49.198;-0.368;2022-11-13T06:53:31;14.52;;;6.78;;
49460;SDS011;35355;49.198;-0.368;2022-11-13T06:55:57;15.90;;;7.55;;
49460;SDS011;35355;49.198;-0.368;2022-11-13T06:58:24;13.32;;;7.82;;
49460;SDS011;35355;49.198;-0.368;2022-11-13T07:00:49;13.32;;;7.40;;
49460;SDS011;35355;49.198;-0.368;2022-11-13T07:03:19;12.38;;;7.20;;
49460;SDS011;35355;49.198;-0.368;2022-11-13T07:05:46;14.93;;;6.85;;
49460;SDS011;35355;49.198;-0.368;2022-11-13T07:08:12;12.32;;;7.63;;
49460;SDS011;35355;49.198;-0.368;2022-11-13T07:10:39;14.68;;;6.90;;
49460;SDS011;35355;49.198;-0.368;2022-11-13T07:13:05;12.70;;;7.05;;
49460;SDS011;35355;49.198;-0.368;2022-11-13T07:15:37;12.57;;;6.88;;
49460;SDS011;35355;49.198;-0.368;2022-11-13T07:18:04;12.18;;;7.07;;
49460;SDS011;35355;49.198;-0.368;2022-11-13T07:20:31;10.68;;;5.88;;
49460;SDS011;35355;49.198;-0.368;2022-11-13T07:22:58;11.15;;;6.10;;
49460;SDS011;35355;49.198;-0.368;2022-11-13T07:25:24;9.73;;;6.28;;
49460;SDS011;35355;49.198;-0.368;2022-11-13T07:27:50;10.40;;;5.80;;
49460;SDS011;35355;49.198;-0.368;2022-11-13T07:30:16;11.82;;;7.45;;
49460;SDS011;35355;49.198;-0.368;2022-11-13T07:32:41;12.18;;;5.85;;
49460;SDS011;35355;49.198;-0.368;2022-11-13T07:35:07;13.65;;;5.75;;
49460;SDS011;35355;49.198;-0.368;2022-11-13T07:37:33;12.05;;;5.70;;
49460;SDS011;35355;49.198;-0.368;2022-11-13T07:39:58;12.98;;;6.78;;
49460;SDS011;35355;49.198;-0.368;2022-11-13T07:42:23;11.25;;;5.55;;
49460;SDS011;35355;49.198;-0.368;2022-11-13T07:44:49;16.85;;;6.30;;
49460;SDS011;35355;49.198;-0.368;2022-11-13T07:47:14;8.82;;;5.13;;
49460;SDS011;35355;49.198;-0.368;2022-11-13T07:49:40;11.90;;;6.60;;
49460;SDS011;35355;49.198;-0.368;2022-11-13T07:52:05;14.52;;;5.95;;
49460;SDS011;35355;49.198;-0.368;2022-11-13T07:54:31;12.93;;;5.97;;
49460;SDS011;35355;49.198;-0.368;2022-11-13T07:56:56;14.07;;;5.80;;
49460;SDS011;35355;49.198;-0.368;2022-11-13T07:59:21;9.40;;;5.70;;
49460;SDS011;35355;49.198;-0.368;2022-11-13T08:01:47;9.65;;;5.22;;
49460;SDS011;35355;49.198;-0.368;2022-11-13T08:04:12;12.70;;;5.70;;
49460;SDS011;35355;49.198;-0.368;2022-11-13T08:06:38;10.25;;;5.53;;
49460;SDS011;35355;49.198;-0.368;2022-11-13T08:09:03;12.48;;;5.63;;
49460;SDS011;35355;49.198;-0.368;2022-11-13T08:11:29;8.18;;;5.03;;
49460;SDS011;35355;49.198;-0.368;2022-11-13T08:13:54;9.05;;;5.43;;
49460;SDS011;35355;49.198;-0.368;2022-11-13T08:16:19;8.27;;;5.25;;
49460;SDS011;35355;49.198;-0.368;2022-11-13T08:18:47;13.30;;;5.80;;
49460;SDS011;35355;49.198;-0.368;2022-11-13T08:21:13;12.45;;;5.55;;
49460;SDS011;35355;49.198;-0.368;2022-11-13T08:23:39;12.50;;;5.40;;
49460;SDS011;35355;49.198;-0.368;2022-11-13T08:26:06;8.57;;;5.50;;
49460;SDS011;35355;49.198;-0.368;2022-11-13T08:28:33;8.57;;;4.72;;
49460;SDS011;35355;49.198;-0.368;2022-11-13T08:30:59;10.75;;;5.00;;
49460;SDS011;35355;49.198;-0.368;2022-11-13T08:33:24;14.30;;;6.43;;
49460;SDS011;35355;49.198;-0.368;2022-11-13T08:35:56;11.45;;;5.07;;
49460;SDS011;35355;49.198;-0.368;2022-11-13T08:38:23;10.13;;;4.72;;
49460;SDS011;35355;49.198;-0.368;2022-11-13T08:40:49;8.52;;;4.72;;
49460;SDS011;35355;49.198;-0.368;2022-11-13T08:43:15;9.73;;;4.55;;
49460;SDS011;35355;49.198;-0.368;2022-11-13T08:45:41;10.45;;;4.85;;
49460;SDS011;35355;49.198;-0.368;2022-11-13T08:48:10;7.78;;;4.72;;
49460;SDS011;35355;49.198;-0.368;2022-11-13T08:50:35;7.63;;;4.43;;
49460;SDS011;35355;49.198;-0.368;2022-11-13T08:53:00;10.10;;;4.40;;
49460;SDS011;35355;49.198;-0.368;2022-11-13T08:55:26;7.75;;;4.05;;
49460;SDS011;35355;49.198;-0.368;2022-11-13T08:57:52;9.70;;;4.47;;
49460;SDS011;35355;49.198;-0.368;2022-11-13T09:00:17;6.78;;;4.72;;
49460;SDS011;35355;49.198;-0.368;2022-11-13T09:02:44;11.32;;;4.22;;
49460;SDS011;35355;49.198;-0.368;2022-11-13T09:05:09;5.70;;;3.38;;
49460;SDS011;35355;49.198;-0.368;2022-11-13T09:07:34;6.03;;;3.55;;
49460;SDS011;35355;49.198;-0.368;2022-11-13T09:10:00;10.68;;;4.85;;
49460;SDS011;35355;49.198;-0.368;2022-11-13T09:12:25;6.68;;;3.67;;
49460;SDS011;35355;49.198;-0.368;2022-11-13T09:14:51;5.25;;;3.10;;
49460;SDS011;35355;49.198;-0.368;2022-11-13T09:17:16;7.18;;;3.58;;
49460;SDS011;35355;49.198;-0.368;2022-11-13T09:19:42;5.90;;;3.63;;
49460;SDS011;35355;49.198;-0.368;2022-11-13T09:22:07;7.00;;;3.80;;
49460;SDS011;35355;49.198;-0.368;2022-11-13T09:24:33;5.30;;;3.10;;
49460;SDS011;35355;49.198;-0.368;2022-11-13T09:26:59;5.97;;;3.08;;
49460;SDS011;35355;49.198;-0.368;2022-11-13T09:29:24;8.88;;;3.40;;
49460;SDS011;35355;49.198;-0.368;2022-11-13T09:31:52;8.15;;;3.58;;
49460;SDS011;35355;49.198;-0.368;2022-11-13T09:34:18;6.22;;;3.55;;
49460;SDS011;35355;49.198;-0.368;2022-11-13T09:36:43;5.82;;;3.00;;
49460;SDS011;35355;49.198;-0.368;2022-11-13T09:39:09;7.70;;;3.40;;
49460;SDS011;35355;49.198;-0.368;2022-11-13T09:41:38;5.80;;;3.20;;
49460;SDS011;35355;49.198;-0.368;2022-11-13T09:44:17;7.57;;;3.92;;
49460;SDS011;35355;49.198;-0.368;2022-11-13T09:49:30;5.70;;;3.40;;
49460;SDS011;35355;49.198;-0.368;2022-11-13T09:52:00;5.07;;;3.30;;
49460;SDS011;35355;49.198;-0.368;2022-11-13T09:54:28;6.97;;;3.72;;
49460;SDS011;35355;49.198;-0.368;2022-11-13T09:59:46;6.90;;;4.20;;
49460;SDS011;35355;49.198;-0.368;2022-11-13T10:02:36;10.40;;;3.95;;
49460;SDS011;35355;49.198;-0.368;2022-11-13T10:08:21;7.50;;;3.67;;
49460;SDS011;35355;49.198;-0.368;2022-11-13T10:13:48;7.93;;;3.78;;
49460;SDS011;35355;49.198;-0.368;2022-11-13T10:16:31;7.97;;;4.13;;
49460;SDS011;35355;49.198;-0.368;2022-11-13T10:19:05;8.05;;;3.67;;
49460;SDS011;35355;49.198;-0.368;2022-11-13T10:21:48;8.23;;;4.00;;
49460;SDS011;35355;49.198;-0.368;2022-11-13T10:24:23;6.90;;;3.90;;
49460;SDS011;35355;49.198;-0.368;2022-11-13T10:26:52;5.57;;;3.92;;
49460;SDS011;35355;49.198;-0.368;2022-11-13T10:29:20;7.28;;;4.82;;
49460;SDS011;35355;49.198;-0.368;2022-11-13T10:31:50;7.97;;;4.75;;
49460;SDS011;35355;49.198;-0.368;2022-11-13T10:34:16;6.68;;;3.97;;
49460;SDS011;35355;49.198;-0.368;2022-11-13T10:40:28;9.02;;;4.18;;
49460;SDS011;35355;49.198;-0.368;2022-11-13T10:43:17;10.40;;;3.95;;
49460;SDS011;35355;49.198;-0.368;2022-11-13T10:45:51;7.18;;;3.13;;
49460;SDS011;35355;49.198;-0.368;2022-11-13T10:48:28;10.38;;;3.67;;
49460;SDS011;35355;49.198;-0.368;2022-11-13T10:51:02;5.95;;;3.55;;
49460;SDS011;35355;49.198;-0.368;2022-11-13T10:53:38;5.28;;;3.20;;
49460;SDS011;35355;49.198;-0.368;2022-11-13T10:56:26;7.97;;;2.95;;
49460;SDS011;35355;49.198;-0.368;2022-11-13T10:59:15;3.90;;;2.63;;
49460;SDS011;35355;49.198;-0.368;2022-11-13T11:01:41;6.47;;;3.05;;
49460;SDS011;35355;49.198;-0.368;2022-11-13T11:04:21;7.38;;;2.95;;
49460;SDS011;35355;49.198;-0.368;2022-11-13T11:06:48;5.47;;;2.47;;
49460;SDS011;35355;49.198;-0.368;2022-11-13T11:11:58;5.53;;;3.13;;
49460;SDS011;35355;49.198;-0.368;2022-11-13T11:15:00;7.57;;;3.03;;
49460;SDS011;35355;49.198;-0.368;2022-11-13T11:26:02;6.22;;;3.13;;
49460;SDS011;35355;49.198;-0.368;2022-11-13T11:28:36;4.93;;;2.65;;
49460;SDS011;35355;49.198;-0.368;2022-11-13T11:31:11;7.80;;;2.58;;
49460;SDS011;35355;49.198;-0.368;2022-11-13T11:36:57;7.30;;;2.97;;
49460;SDS011;35355;49.198;-0.368;2022-11-13T11:39:49;6.20;;;2.97;;
49460;SDS011;35355;49.198;-0.368;2022-11-13T11:42:21;7.45;;;2.83;;
49460;SDS011;35355;49.198;-0.368;2022-11-13T11:47:48;5.35;;;2.50;;
49460;SDS011;35355;49.198;-0.368;2022-11-13T11:50:15;5.55;;;2.25;;
49460;SDS011;35355;49.198;-0.368;2022-11-13T11:52:54;10.77;;;2.47;;
49460;SDS011;35355;49.198;-0.368;2022-11-13T11:58:34;6.13;;;1.95;;
49460;SDS011;35355;49.198;-0.368;2022-11-13T12:04:13;6.93;;;2.30;;
49460;SDS011;35355;49.198;-0.368;2022-11-13T12:09:16;4.13;;;2.00;;
49460;SDS011;35355;49.198;-0.368;2022-11-13T12:11:58;4.47;;;1.70;;
49460;SDS011;35355;49.198;-0.368;2022-11-13T12:17:52;4.72;;;1.65;;
49460;SDS011;35355;49.198;-0.368;2022-11-13T12:23:21;5.57;;;1.50;;
49460;SDS011;35355;49.198;-0.368;2022-11-13T12:26:01;8.68;;;2.63;;
49460;SDS011;35355;49.198;-0.368;2022-11-13T12:28:49;7.85;;;2.47;;
49460;SDS011;35355;49.198;-0.368;2022-11-13T12:34:09;5.07;;;1.35;;
49460;SDS011;35355;49.198;-0.368;2022-11-13T12:36:45;8.15;;;2.42;;
49460;SDS011;35355;49.198;-0.368;2022-11-13T12:39:59;3.50;;;1.58;;
49460;SDS011;35355;49.198;-0.368;2022-11-13T12:45:15;3.00;;;1.33;;
49460;SDS011;35355;49.198;-0.368;2022-11-13T12:47:54;6.88;;;2.33;;
49460;SDS011;35355;49.198;-0.368;2022-11-13T12:50:29;3.47;;;1.30;;
49460;SDS011;35355;49.198;-0.368;2022-11-13T12:52:59;2.53;;;1.45;;
49460;SDS011;35355;49.198;-0.368;2022-11-13T12:55:27;3.55;;;1.48;;
49460;SDS011;35355;49.198;-0.368;2022-11-13T12:58:17;4.47;;;2.13;;
49460;SDS011;35355;49.198;-0.368;2022-11-13T13:00:52;7.53;;;2.00;;
49460;SDS011;35355;49.198;-0.368;2022-11-13T13:14:14;5.38;;;1.75;;
49460;SDS011;35355;49.198;-0.368;2022-11-13T13:17:20;3.85;;;1.70;;
49460;SDS011;35355;49.198;-0.368;2022-11-13T13:20:04;6.22;;;2.47;;
49460;SDS011;35355;49.198;-0.368;2022-11-13T13:22:31;5.73;;;2.13;;
49460;SDS011;35355;49.198;-0.368;2022-11-13T13:25:06;5.05;;;2.60;;
49460;SDS011;35355;49.198;-0.368;2022-11-13T13:27:54;4.40;;;2.00;;
49460;SDS011;35355;49.198;-0.368;2022-11-13T13:30:22;4.97;;;1.50;;
49460;SDS011;35355;49.198;-0.368;2022-11-13T13:48:36;6.18;;;2.15;;
49460;SDS011;35355;49.198;-0.368;2022-11-13T13:51:04;3.92;;;1.77;;
49460;SDS011;35355;49.198;-0.368;2022-11-13T14:11:34;6.40;;;1.73;;
49460;SDS011;35355;49.198;-0.368;2022-11-13T14:14:06;4.78;;;2.28;;
49460;SDS011;35355;49.198;-0.368;2022-11-13T14:16:33;4.10;;;1.70;;
49460;SDS011;35355;49.198;-0.368;2022-11-13T14:19:02;5.25;;;1.65;;
49460;SDS011;35355;49.198;-0.368;2022-11-13T14:21:28;8.45;;;2.10;;
49460;SDS011;35355;49.198;-0.368;2022-11-13T14:23:54;5.65;;;1.50;;
49460;SDS011;35355;49.198;-0.368;2022-11-13T14:26:20;3.88;;;1.52;;
49460;SDS011;35355;49.198;-0.368;2022-11-13T14:31:18;9.00;;;2.22;;
49460;SDS011;35355;49.198;-0.368;2022-11-13T14:33:47;5.32;;;1.63;;
49460;SDS011;35355;49.198;-0.368;2022-11-13T14:36:14;4.90;;;1.90;;
49460;SDS011;35355;49.198;-0.368;2022-11-13T14:38:48;6.75;;;2.22;;
49460;SDS011;35355;49.198;-0.368;2022-11-13T14:41:49;2.75;;;1.63;;
49460;SDS011;35355;49.198;-0.368;2022-11-13T14:44:30;7.78;;;2.05;;
49460;SDS011;35355;49.198;-0.368;2022-11-13T14:47:04;7.22;;;2.30;;
49460;SDS011;35355;49.198;-0.368;2022-11-13T14:49:44;7.82;;;2.33;;
49460;SDS011;35355;49.198;-0.368;2022-11-13T14:52:18;12.55;;;2.05;;
49460;SDS011;35355;49.198;-0.368;2022-11-13T14:54:47;7.45;;;2.40;;
49460;SDS011;35355;49.198;-0.368;2022-11-13T14:57:13;5.63;;;2.13;;
49460;SDS011;35355;49.198;-0.368;2022-11-13T14:59:39;5.45;;;1.92;;
49460;SDS011;35355;49.198;-0.368;2022-11-13T15:02:09;4.20;;;2.13;;
49460;SDS011;35355;49.198;-0.368;2022-11-13T15:04:35;5.97;;;2.30;;
49460;SDS011;35355;49.198;-0.368;2022-11-13T15:07:01;7.63;;;2.05;;
49460;SDS011;35355;49.198;-0.368;2022-11-13T15:09:41;5.70;;;1.67;;
49460;SDS011;35355;49.198;-0.368;2022-11-13T15:12:09;4.53;;;2.30;;
49460;SDS011;35355;49.198;-0.368;2022-11-13T15:14:36;5.45;;;2.25;;
49460;SDS011;35355;49.198;-0.368;2022-11-13T15:17:03;4.18;;;1.77;;
49460;SDS011;35355;49.198;-0.368;2022-11-13T15:19:32;4.65;;;2.10;;
49460;SDS011;35355;49.198;-0.368;2022-11-13T15:22:01;6.05;;;2.42;;
49460;SDS011;35355;49.198;-0.368;2022-11-13T15:24:26;2.83;;;1.98;;
49460;SDS011;35355;49.198;-0.368;2022-11-13T15:26:52;5.75;;;2.30;;
49460;SDS011;35355;49.198;-0.368;2022-11-13T15:29:18;6.13;;;2.38;;
49460;SDS011;35355;49.198;-0.368;2022-11-13T15:31:44;9.25;;;3.00;;
49460;SDS011;35355;49.198;-0.368;2022-11-13T15:34:11;4.78;;;2.13;;
49460;SDS011;35355;49.198;-0.368;2022-11-13T15:36:37;4.97;;;1.92;;
49460;SDS011;35355;49.198;-0.368;2022-11-13T15:39:04;5.78;;;2.53;;
49460;SDS011;35355;49.198;-0.368;2022-11-13T15:41:30;4.43;;;1.77;;
49460;SDS011;35355;49.198;-0.368;2022-11-13T15:43:58;7.45;;;2.53;;
49460;SDS011;35355;49.198;-0.368;2022-11-13T15:46:24;6.72;;;2.30;;
49460;SDS011;35355;49.198;-0.368;2022-11-13T15:48:50;4.32;;;2.30;;
49460;SDS011;35355;49.198;-0.368;2022-11-13T15:54:13;5.53;;;2.63;;
49460;SDS011;35355;49.198;-0.368;2022-11-13T15:56:48;5.97;;;2.47;;
49460;SDS011;35355;49.198;-0.368;2022-11-13T15:59:13;6.60;;;3.33;;
49460;SDS011;35355;49.198;-0.368;2022-11-13T16:01:39;5.93;;;2.70;;
49460;SDS011;35355;49.198;-0.368;2022-11-13T16:04:06;6.05;;;2.58;;
49460;SDS011;35355;49.198;-0.368;2022-11-13T16:06:32;8.05;;;3.63;;
49460;SDS011;35355;49.198;-0.368;2022-11-13T16:08:59;7.85;;;3.90;;
49460;SDS011;35355;49.198;-0.368;2022-11-13T16:11:25;8.40;;;2.83;;
49460;SDS011;35355;49.198;-0.368;2022-11-13T16:13:51;10.02;;;2.60;;
49460;SDS011;35355;49.198;-0.368;2022-11-13T16:16:18;5.55;;;3.15;;
49460;SDS011;35355;49.198;-0.368;2022-11-13T16:18:47;6.63;;;3.00;;
49460;SDS011;35355;49.198;-0.368;2022-11-13T16:21:14;8.18;;;3.28;;
49460;SDS011;35355;49.198;-0.368;2022-11-13T16:23:41;8.10;;;3.15;;
49460;SDS011;35355;49.198;-0.368;2022-11-13T16:26:25;5.90;;;3.35;;
49460;SDS011;35355;49.198;-0.368;2022-11-13T16:31:21;7.18;;;3.03;;
49460;SDS011;35355;49.198;-0.368;2022-11-13T16:33:47;7.30;;;3.25;;
49460;SDS011;35355;49.198;-0.368;2022-11-13T16:36:19;10.07;;;3.42;;
49460;SDS011;35355;49.198;-0.368;2022-11-13T16:38:46;9.43;;;4.40;;
49460;SDS011;35355;49.198;-0.368;2022-11-13T16:41:15;8.38;;;3.83;;
49460;SDS011;35355;49.198;-0.368;2022-11-13T16:43:44;10.43;;;3.72;;
49460;SDS011;35355;49.198;-0.368;2022-11-13T16:48:53;10.95;;;4.22;;
49460;SDS011;35355;49.198;-0.368;2022-11-13T16:51:18;6.40;;;3.95;;